createdAt,value
2022-12-05T00:02:45.746Z,103567.91
2022-12-05T00:05:50.739Z,103558.06
2022-12-05T00:08:55.768Z,103553.75
2022-12-05T00:12:00.516Z,103564.38
2022-12-05T00:15:09.633Z,103564.59
2022-12-05T00:18:14.368Z,103564.28
2022-12-05T00:21:21.581Z,103566.16
2022-12-05T00:24:26.374Z,103561.94
2022-12-05T00:27:31.016Z,103562.00
2022-12-05T00:30:37.105Z,103560.44
2022-12-05T00:33:42.009Z,103553.41
2022-12-05T00:36:46.645Z,103568.25
2022-12-05T00:39:51.413Z,103548.03
2022-12-05T00:42:56.124Z,103555.56
2022-12-05T00:46:04.545Z,103551.03
2022-12-05T00:49:10.177Z,103547.69
2022-12-05T00:52:14.813Z,103546.81
2022-12-05T00:55:19.682Z,103548.38
2022-12-05T00:58:24.361Z,103541.66
2022-12-05T01:01:33.229Z,103536.50
2022-12-05T01:04:38.476Z,103540.69
2022-12-05T01:07:43.247Z,103545.38
2022-12-05T01:10:55.167Z,103549.84
2022-12-05T01:14:00.289Z,103555.44
2022-12-05T01:17:06.687Z,103550.91
2022-12-05T01:20:14.225Z,103548.66
2022-12-05T01:23:18.978Z,103552.84
2022-12-05T01:26:24.820Z,103557.31
2022-12-05T01:29:29.845Z,103552.84
2022-12-05T01:32:36.147Z,103558.06
2022-12-05T01:35:42.484Z,103562.13
2022-12-05T01:38:47.871Z,103551.78
2022-12-05T01:41:53.264Z,103561.50
2022-12-05T01:45:07.197Z,103548.16
2022-12-05T01:48:19.619Z,103535.09
2022-12-05T01:51:25.277Z,103539.41
2022-12-05T01:54:31.154Z,103537.13
2022-12-05T01:57:36.226Z,103539.66
2022-12-05T02:00:41.660Z,103538.19
2022-12-05T02:03:50.210Z,103530.84
2022-12-05T02:06:55.126Z,103529.78
2022-12-05T02:10:00.253Z,103531.09
2022-12-05T02:13:16.834Z,103524.25
2022-12-05T02:16:29.554Z,103523.53
2022-12-05T02:20:00.931Z,103528.72
2022-12-05T02:23:57.874Z,103523.38
2022-12-05T02:27:31.540Z,103525.09
2022-12-05T02:30:41.045Z,103531.94
2022-12-05T02:33:50.018Z,103526.66
2022-12-05T02:37:00.837Z,103519.38
2022-12-05T02:40:12.364Z,103520.84
2022-12-05T02:43:20.470Z,103521.81
2022-12-05T02:46:30.438Z,103504.00
2022-12-05T02:49:38.019Z,103510.34
2022-12-05T02:52:43.919Z,103502.72
2022-12-05T02:55:50.134Z,103495.66
2022-12-05T02:58:56.670Z,103494.53
2022-12-05T03:02:02.679Z,103497.31
2022-12-05T03:05:18.722Z,103490.72
2022-12-05T03:08:28.996Z,103492.28
2022-12-05T03:11:39.657Z,103482.28
2022-12-05T03:14:48.349Z,103478.91
2022-12-05T03:17:58.713Z,103477.97
2022-12-05T03:21:10.055Z,103478.91
2022-12-05T03:24:16.485Z,103471.63
2022-12-05T03:27:27.041Z,103469.41
2022-12-05T03:30:32.767Z,103463.59
2022-12-05T03:33:43.848Z,103467.41
2022-12-05T03:36:51.948Z,103470.44
2022-12-05T03:40:07.697Z,103454.56
2022-12-05T03:43:26.753Z,103451.91
2022-12-05T03:46:33.977Z,103447.84
2022-12-05T03:49:44.506Z,103449.88
2022-12-05T03:53:18.796Z,103448.63
2022-12-05T03:56:24.466Z,103446.09
2022-12-05T03:59:34.424Z,103435.03
2022-12-05T04:02:45.636Z,103423.16
2022-12-05T04:05:54.368Z,103428.97
2022-12-05T04:09:02.241Z,103423.94
2022-12-05T04:12:10.073Z,103426.13
2022-12-05T04:15:23.058Z,103425.44
2022-12-05T04:18:27.878Z,103420.56
2022-12-05T04:21:40.180Z,103415.63
2022-12-05T04:25:02.450Z,103405.75
2022-12-05T04:28:25.568Z,103410.75
2022-12-05T04:31:35.052Z,103405.84
2022-12-05T04:34:40.490Z,103405.22
2022-12-05T04:37:50.186Z,103414.19
2022-12-05T04:40:59.496Z,103405.63
2022-12-05T04:44:09.124Z,103403.72
2022-12-05T04:47:15.383Z,103399.81
2022-12-05T04:50:20.941Z,103399.88
2022-12-05T04:53:30.348Z,103392.63
2022-12-05T04:56:38.083Z,103388.44
2022-12-05T04:59:42.865Z,103390.88
2022-12-05T05:02:52.980Z,103391.28
2022-12-05T05:05:58.773Z,103389.78
2022-12-05T05:09:06.117Z,103385.81
2022-12-05T05:12:18.747Z,103389.44
2022-12-05T05:15:23.975Z,103383.09
2022-12-05T05:18:28.755Z,103399.69
2022-12-05T05:21:35.701Z,103391.72
2022-12-05T05:24:41.890Z,103372.00
2022-12-05T05:27:51.263Z,103377.28
2022-12-05T05:30:55.914Z,103378.38
2022-12-05T05:34:07.388Z,103365.28
2022-12-05T05:37:14.579Z,103373.34
2022-12-05T05:40:21.078Z,103372.78
2022-12-05T05:43:25.738Z,103358.09
2022-12-05T05:46:32.979Z,103351.25
2022-12-05T05:49:38.096Z,103352.50
2022-12-05T05:52:44.514Z,103346.03
2022-12-05T05:55:50.561Z,103343.50
2022-12-05T05:59:00.327Z,103336.50
2022-12-05T06:02:05.175Z,103331.41
2022-12-05T06:05:10.668Z,103338.59
2022-12-05T06:08:15.740Z,103341.09
2022-12-05T06:11:26.348Z,103337.38
2022-12-05T06:14:31.680Z,103327.44
2022-12-05T06:17:36.343Z,103316.66
2022-12-05T06:20:41.085Z,103312.69
2022-12-05T06:23:46.134Z,103318.09
2022-12-05T06:26:52.228Z,103315.50
2022-12-05T06:29:57.329Z,103318.31
2022-12-05T06:33:02.168Z,103308.88
2022-12-05T06:36:09.941Z,103321.19
2022-12-05T06:39:14.661Z,103325.50
2022-12-05T06:42:22.341Z,103321.38
2022-12-05T06:45:27.265Z,103321.84
2022-12-05T06:48:32.293Z,103325.56
2022-12-05T06:51:38.032Z,103320.09
2022-12-05T06:54:42.685Z,103327.13
2022-12-05T06:57:48.704Z,103329.72
2022-12-05T07:01:11.593Z,103324.47
2022-12-05T07:04:20.297Z,103320.91
2022-12-05T07:07:25.078Z,103309.03
2022-12-05T07:10:29.883Z,103310.47
2022-12-05T07:13:36.446Z,103310.00
2022-12-05T07:16:41.219Z,103309.03
2022-12-05T07:19:46.099Z,103308.56
2022-12-05T07:22:50.884Z,103305.03
2022-12-05T07:25:57.899Z,103308.31
2022-12-05T07:29:04.008Z,103298.66
2022-12-05T07:32:09.448Z,103290.44
2022-12-05T07:35:14.285Z,103298.78
2022-12-05T07:38:18.970Z,103287.41
2022-12-05T07:41:25.275Z,103295.66
2022-12-05T07:44:31.391Z,103292.59
2022-12-05T07:47:36.109Z,103289.28
2022-12-05T07:50:40.845Z,103289.66
2022-12-05T07:53:46.142Z,103277.13
2022-12-05T07:56:50.839Z,103282.19
2022-12-05T07:59:57.184Z,103280.75
2022-12-05T08:03:04.264Z,103268.63
2022-12-05T08:06:11.389Z,103270.66
2022-12-05T08:09:16.378Z,103260.94
2022-12-05T08:12:21.074Z,103255.41
2022-12-05T08:15:27.308Z,103248.94
2022-12-05T08:18:32.362Z,103248.59
2022-12-05T08:21:37.213Z,103264.06
2022-12-05T08:24:41.982Z,103260.84
2022-12-05T08:27:47.007Z,103261.09
2022-12-05T08:30:53.135Z,103267.31
2022-12-05T08:33:59.512Z,103267.81
2022-12-05T08:37:04.627Z,103271.50
2022-12-05T08:40:10.516Z,103266.44
2022-12-05T08:43:15.338Z,103258.09
2022-12-05T08:46:21.447Z,103270.97
2022-12-05T08:49:26.390Z,103268.06
2022-12-05T08:52:31.445Z,103263.09
2022-12-05T08:55:36.347Z,103255.56
2022-12-05T08:58:41.629Z,103258.41
2022-12-05T09:01:48.055Z,103245.53
2022-12-05T09:04:54.155Z,103254.88
2022-12-05T09:07:59.920Z,103247.84
2022-12-05T09:11:08.126Z,103255.66
2022-12-05T09:14:16.274Z,103250.97
2022-12-05T09:17:23.186Z,103239.75
2022-12-05T09:20:27.978Z,103240.53
2022-12-05T09:23:33.194Z,103229.94
2022-12-05T09:26:38.252Z,103225.09
2022-12-05T09:29:43.471Z,103223.72
2022-12-05T09:32:49.613Z,103214.09
2022-12-05T09:35:54.343Z,103210.78
2022-12-05T09:39:03.037Z,103217.53
2022-12-05T09:42:27.181Z,103215.94
2022-12-05T09:45:38.228Z,103204.81
2022-12-05T09:48:45.009Z,103207.75
2022-12-05T09:51:55.080Z,103203.91
2022-12-05T09:55:06.379Z,103201.25
2022-12-05T09:58:43.266Z,103203.47
2022-12-05T10:01:56.224Z,103207.59
2022-12-05T10:05:05.906Z,103205.88
2022-12-05T10:08:19.229Z,103199.31
2022-12-05T10:11:29.048Z,103199.50
2022-12-05T10:14:40.968Z,103186.44
2022-12-05T10:17:50.479Z,103170.50
2022-12-05T10:21:02.245Z,103165.25
2022-12-05T10:24:14.823Z,103172.72
2022-12-05T10:27:22.005Z,103169.19
2022-12-05T10:30:30.442Z,103165.06
2022-12-05T10:33:40.700Z,103165.19
2022-12-05T10:36:56.245Z,103151.75
2022-12-05T10:40:00.944Z,103154.91
2022-12-05T10:43:08.216Z,103148.56
2022-12-05T10:46:17.203Z,103143.94
2022-12-05T10:49:22.756Z,103140.81
2022-12-05T10:52:28.823Z,103136.38
2022-12-05T10:55:37.921Z,103130.47
2022-12-05T10:58:57.248Z,103131.28
2022-12-05T11:02:02.933Z,103123.34
2022-12-05T11:05:09.557Z,103113.31
2022-12-05T11:08:48.191Z,103109.06
2022-12-05T11:12:04.948Z,103101.00
2022-12-05T11:15:25.518Z,103097.25
2022-12-05T11:18:33.719Z,103091.09
2022-12-05T11:21:44.110Z,103083.16
2022-12-05T11:24:50.280Z,103083.84
2022-12-05T11:27:59.743Z,103072.03
2022-12-05T11:31:17.794Z,103066.97
2022-12-05T11:34:25.921Z,103060.16
2022-12-05T11:37:36.462Z,103065.66
2022-12-05T11:40:51.901Z,103055.78
2022-12-05T11:44:24.981Z,103058.06
2022-12-05T11:47:46.357Z,103039.63
2022-12-05T11:51:04.977Z,103032.03
2022-12-05T11:55:04.924Z,103028.34
2022-12-05T11:58:37.529Z,103026.50
2022-12-05T12:01:51.149Z,103031.31
2022-12-05T12:05:02.243Z,103016.28
2022-12-05T12:08:17.127Z,103011.69
2022-12-05T12:11:28.860Z,102998.06
2022-12-05T12:14:47.261Z,103001.50
2022-12-05T12:17:59.165Z,102996.16
2022-12-05T12:21:18.530Z,102997.06
2022-12-05T12:24:33.061Z,102993.44
2022-12-05T12:27:47.418Z,102981.38
2022-12-05T12:31:08.481Z,102983.72
2022-12-05T12:34:35.623Z,102970.66
2022-12-05T12:37:47.402Z,102970.03
2022-12-05T12:40:55.482Z,102953.25
2022-12-05T12:44:08.783Z,102961.00
2022-12-05T12:47:19.900Z,102950.09
2022-12-05T12:50:26.803Z,102946.66
2022-12-05T12:53:57.336Z,102941.78
2022-12-05T12:57:15.271Z,102932.66
2022-12-05T13:00:28.333Z,102919.31
2022-12-05T13:03:40.939Z,102915.50
2022-12-05T13:06:49.804Z,102912.19
2022-12-05T13:09:58.995Z,102903.81
2022-12-05T13:13:05.405Z,102911.47
2022-12-05T13:16:18.425Z,102900.03
2022-12-05T13:19:30.538Z,102896.63
2022-12-05T13:22:35.414Z,102897.19
2022-12-05T13:25:41.771Z,102882.97
2022-12-05T13:28:52.669Z,102878.91
2022-12-05T13:31:57.547Z,102880.69
2022-12-05T13:35:11.105Z,102864.78
2022-12-05T13:38:41.993Z,102864.28
2022-12-05T13:42:06.440Z,102852.56
2022-12-05T13:45:18.157Z,102852.53
2022-12-05T13:48:25.555Z,102856.13
2022-12-05T13:51:35.274Z,102853.56
2022-12-05T13:54:45.638Z,102842.25
2022-12-05T13:57:55.145Z,102837.69
2022-12-05T14:01:51.937Z,102828.50
2022-12-05T14:05:00.265Z,102829.69
2022-12-05T14:08:58.806Z,102812.34
2022-12-05T14:12:31.898Z,102807.88
2022-12-05T14:15:42.683Z,102805.94
2022-12-05T14:18:50.999Z,102808.59
2022-12-05T14:22:02.824Z,102801.28
2022-12-05T14:25:21.022Z,102799.03
2022-12-05T14:28:39.137Z,102805.88
2022-12-05T14:31:52.892Z,102794.66
2022-12-05T14:35:00.115Z,102805.38
2022-12-05T14:38:06.845Z,102784.31
2022-12-05T14:41:23.302Z,102793.78
2022-12-05T14:44:32.176Z,102786.84
2022-12-05T14:47:37.213Z,102785.19
2022-12-05T14:50:45.225Z,102772.72
2022-12-05T14:53:50.613Z,102772.66
2022-12-05T14:57:08.548Z,102773.34
2022-12-05T15:00:21.239Z,102772.34
2022-12-05T15:03:31.304Z,102765.53
2022-12-05T15:06:43.630Z,102762.72
2022-12-05T15:09:57.888Z,102755.09
2022-12-05T15:13:09.360Z,102760.56
2022-12-05T15:16:17.999Z,102748.50
2022-12-05T15:19:29.990Z,102755.03
2022-12-05T15:22:36.634Z,102752.66
2022-12-05T15:25:41.533Z,102747.78
2022-12-05T15:29:05.500Z,102735.56
2022-12-05T15:32:20.173Z,102736.34
2022-12-05T15:35:27.481Z,102725.09
2022-12-05T15:38:35.026Z,102712.88
2022-12-05T15:41:39.954Z,102703.56
2022-12-05T15:44:46.144Z,102692.94
2022-12-05T15:47:52.602Z,102693.00
2022-12-05T15:50:57.543Z,102704.28
2022-12-05T15:54:06.272Z,102689.38
2022-12-05T15:57:16.409Z,102681.44
2022-12-05T16:00:26.035Z,102670.81
2022-12-05T16:03:39.467Z,102665.91
2022-12-05T16:06:45.668Z,102660.28
2022-12-05T16:09:52.017Z,102648.81
2022-12-05T16:12:56.880Z,102647.97
2022-12-05T16:16:03.337Z,102663.94
2022-12-05T16:19:15.646Z,102656.50
2022-12-05T16:22:24.154Z,102658.78
2022-12-05T16:25:30.844Z,102655.75
2022-12-05T16:28:35.994Z,102650.78
2022-12-05T16:31:43.001Z,102648.28
2022-12-05T16:34:48.029Z,102647.66
2022-12-05T16:37:52.986Z,102642.88
2022-12-05T16:40:59.680Z,102653.75
2022-12-05T16:44:13.050Z,102638.50
2022-12-05T16:47:25.569Z,102645.06
2022-12-05T16:50:32.824Z,102625.81
2022-12-05T16:53:37.736Z,102614.63
2022-12-05T16:56:43.431Z,102611.66
2022-12-05T16:59:49.864Z,102612.28
2022-12-05T17:03:18.517Z,102612.16
2022-12-05T17:06:21.339Z,102605.72
2022-12-05T17:09:26.148Z,102594.16
2022-12-05T17:12:31.152Z,102599.69
2022-12-05T17:15:36.176Z,102584.81
2022-12-05T17:18:42.605Z,102590.78
2022-12-05T17:21:47.594Z,102591.78
2022-12-05T17:24:52.442Z,102582.31
2022-12-05T17:27:57.298Z,102563.63
2022-12-05T17:31:02.318Z,102562.03
2022-12-05T17:34:17.014Z,102549.91
2022-12-05T17:37:21.965Z,102551.59
2022-12-05T17:40:26.936Z,102547.19
2022-12-05T17:43:31.826Z,102532.63
2022-12-05T17:46:36.712Z,102540.16
2022-12-05T17:49:43.069Z,102540.44
2022-12-05T17:52:48.011Z,102540.44
2022-12-05T17:55:53.040Z,102521.25
2022-12-05T17:58:59.780Z,102520.75
2022-12-05T18:02:05.562Z,102517.78
2022-12-05T18:05:13.733Z,102523.50
2022-12-05T18:08:19.115Z,102515.25
2022-12-05T18:11:23.960Z,102513.44
2022-12-05T18:14:28.896Z,102508.72
2022-12-05T18:17:34.080Z,102501.31
2022-12-05T18:20:40.344Z,102498.78
2022-12-05T18:23:45.377Z,102495.41
2022-12-05T18:26:50.150Z,102489.63
2022-12-05T18:29:55.136Z,102483.84
2022-12-05T18:33:00.069Z,102486.00
2022-12-05T18:36:11.488Z,102484.28
2022-12-05T18:39:16.536Z,102482.19
2022-12-05T18:42:21.393Z,102480.41
2022-12-05T18:45:26.946Z,102474.63
2022-12-05T18:48:39.461Z,102474.84
2022-12-05T18:51:47.476Z,102472.50
2022-12-05T18:55:09.169Z,102477.53
2022-12-05T18:58:17.342Z,102475.41
2022-12-05T19:01:22.295Z,102468.56
2022-12-05T19:04:27.632Z,102461.56
2022-12-05T19:07:33.879Z,102455.88
2022-12-05T19:10:38.850Z,102458.78
2022-12-05T19:13:43.678Z,102462.31
2022-12-05T19:16:54.936Z,102462.47
2022-12-05T19:20:03.184Z,102456.94
2022-12-05T19:23:09.604Z,102448.69
2022-12-05T19:26:14.493Z,102441.75
2022-12-05T19:29:19.480Z,102435.22
2022-12-05T19:32:24.260Z,102431.78
2022-12-05T19:35:29.456Z,102430.22
2022-12-05T19:38:36.909Z,102424.31
2022-12-05T19:41:41.867Z,102420.41
2022-12-05T19:44:46.709Z,102403.81
2022-12-05T19:47:51.553Z,102406.53
2022-12-05T19:50:57.550Z,102401.50
2022-12-05T19:54:05.735Z,102404.88
2022-12-05T19:57:11.341Z,102388.97
2022-12-05T20:00:19.830Z,102389.72
2022-12-05T20:03:24.813Z,102383.03
2022-12-05T20:06:32.858Z,102386.66
2022-12-05T20:09:39.341Z,102387.66
2022-12-05T20:12:44.188Z,102384.53
2022-12-05T20:15:49.367Z,102376.78
2022-12-05T20:18:55.381Z,102372.00
2022-12-05T20:22:00.269Z,102367.03
2022-12-05T20:25:07.101Z,102361.72
2022-12-05T20:28:15.605Z,102370.63
2022-12-05T20:31:22.364Z,102381.72
2022-12-05T20:34:27.273Z,102374.63
2022-12-05T20:37:35.369Z,102369.16
2022-12-05T20:40:42.127Z,102353.06
2022-12-05T20:43:53.064Z,102351.41
2022-12-05T20:46:58.020Z,102353.59
2022-12-05T20:50:02.860Z,102350.06
2022-12-05T20:53:07.884Z,102338.63
2022-12-05T20:56:17.074Z,102332.56
2022-12-05T20:59:22.010Z,102337.75
2022-12-05T21:02:26.957Z,102326.13
2022-12-05T21:05:32.146Z,102314.50
2022-12-05T21:08:36.964Z,102312.94
2022-12-05T21:11:43.746Z,102312.03
2022-12-05T21:14:48.566Z,102312.75
2022-12-05T21:17:53.418Z,102307.38
2022-12-05T21:20:59.046Z,102309.84
2022-12-05T21:24:05.904Z,102306.84
2022-12-05T21:27:12.102Z,102293.69
2022-12-05T21:30:17.392Z,102279.53
2022-12-05T21:33:27.249Z,102271.19
2022-12-05T21:36:35.030Z,102278.78
2022-12-05T21:39:40.064Z,102260.34
2022-12-05T21:42:46.299Z,102259.59
2022-12-05T21:45:53.734Z,102263.53
2022-12-05T21:48:58.749Z,102239.22
2022-12-05T21:52:03.620Z,102233.94
2022-12-05T21:55:09.899Z,102238.69
2022-12-05T21:58:16.445Z,102230.69
2022-12-05T22:01:22.833Z,102225.28
2022-12-05T22:04:27.713Z,102222.13
2022-12-05T22:07:33.162Z,102222.06
2022-12-05T22:10:38.073Z,102213.88
2022-12-05T22:13:44.402Z,102206.25
2022-12-05T22:16:49.398Z,102192.94
2022-12-05T22:19:54.507Z,102185.28
2022-12-05T22:22:59.315Z,102195.25
2022-12-05T22:26:05.846Z,102193.63
2022-12-05T22:29:13.061Z,102175.19
2022-12-05T22:32:18.080Z,102161.00
2022-12-05T22:35:22.869Z,102163.97
2022-12-05T22:38:29.660Z,102164.19
2022-12-05T22:41:34.512Z,102149.94
2022-12-05T22:44:40.758Z,102153.19
2022-12-05T22:47:45.553Z,102147.56
2022-12-05T22:50:51.857Z,102137.53
2022-12-05T22:53:56.916Z,102135.72
2022-12-05T22:57:01.833Z,102129.03
2022-12-05T23:00:10.126Z,102130.84
2022-12-05T23:03:16.446Z,102123.69
2022-12-05T23:06:21.488Z,102113.94
2022-12-05T23:09:27.039Z,102113.88
2022-12-05T23:12:32.008Z,102104.72
2022-12-05T23:15:38.934Z,102102.97
2022-12-05T23:18:50.370Z,102089.56
2022-12-05T23:21:55.359Z,102076.88
2022-12-05T23:25:00.264Z,102065.88
2022-12-05T23:28:05.337Z,102057.50
2022-12-05T23:31:13.284Z,102061.47
2022-12-05T23:34:18.781Z,102052.19
2022-12-05T23:37:23.691Z,102035.75
2022-12-05T23:40:28.659Z,102042.41
2022-12-05T23:43:34.918Z,102030.69
2022-12-05T23:46:41.384Z,102015.44
2022-12-05T23:49:47.625Z,102026.50
2022-12-05T23:52:52.898Z,102022.91
2022-12-05T23:56:02.329Z,102017.59
2022-12-05T23:59:09.676Z,102022.97
